Time;durP1;ratioP1;P1;durP2;ratioP2;P2;SDS_P1;SDS_P2;PMS_P1;PMS_P2;Temp;Humidity;BMP_temperature;BMP_pressure;BME280_temperature;BME280_humidity;BME280_pressure;Samples;Min_cycle;Max_cycle;Signal;HPM_P1;HPM_P2
2023/11/22 00:01:05;;;;;;;4.45;1.63;;;;;;;-5.40;62.65;99440.97;5028621;28;20046;-40
2023/11/22 00:03:32;;;;;;;5.10;1.80;;;;;;;-5.36;62.48;99443.63;5020161;28;20045;-41
2023/11/22 00:05:58;;;;;;;3.17;1.60;;;;;;;-5.52;62.78;99417.88;5026861;28;20175;-40
2023/11/22 00:08:24;;;;;;;4.60;2.38;;;;;;;-5.32;62.94;99447.94;5026987;28;20290;-40
2023/11/22 00:10:49;;;;;;;4.72;2.10;;;;;;;-5.29;62.52;99447.16;5027482;28;20044;-41
2023/11/22 00:13:16;;;;;;;4.07;1.90;;;;;;;-5.60;62.49;99388.13;5027070;28;20099;-41
2023/11/22 00:15:42;;;;;;;4.47;2.25;;;;;;;-5.16;62.48;99446.63;5025666;28;20037;-40
2023/11/22 00:18:08;;;;;;;4.43;1.70;;;;;;;-5.13;62.45;99446.72;5029534;28;20058;-39
2023/11/22 00:20:34;;;;;;;4.82;2.00;;;;;;;-5.15;62.85;99438.22;5026333;28;20463;-40
2023/11/22 00:23:00;;;;;;;3.05;1.70;;;;;;;-5.16;62.41;99437.34;5019945;28;20048;-40
2023/11/22 00:25:26;;;;;;;6.10;2.20;;;;;;;-5.09;62.20;99437.50;5026787;28;20083;-40
2023/11/22 00:27:52;;;;;;;3.75;1.95;;;;;;;-5.11;62.34;99442.53;5026390;28;20040;-41
2023/11/22 00:30:18;;;;;;;3.95;1.83;;;;;;;-5.18;61.80;99433.09;5026368;28;20033;-42
2023/11/22 00:32:45;;;;;;;6.53;2.47;;;;;;;-5.17;62.10;99439.84;5025107;28;20048;-41
2023/11/22 00:35:12;;;;;;;11.15;4.40;;;;;;;-5.14;62.19;99438.25;5024872;28;20052;-41
2023/11/22 00:37:38;;;;;;;8.80;3.97;;;;;;;-5.12;62.36;99439.13;5009367;28;20135;-40
2023/11/22 00:40:10;;;;;;;4.22;1.92;;;;;;;-5.08;61.92;99434.16;5027026;28;20053;-40
2023/11/22 00:42:39;;;;;;;5.10;2.15;;;;;;;-5.29;61.73;99407.50;5026805;28;20045;-40
2023/11/22 00:45:07;;;;;;;5.87;2.10;;;;;;;-5.13;61.89;99429.81;5025814;28;20049;-41
2023/11/22 00:47:33;;;;;;;4.35;2.05;;;;;;;-5.08;61.60;99437.56;5055805;28;20589;-40
2023/11/22 00:50:01;;;;;;;4.15;1.95;;;;;;;-5.07;61.94;99439.25;5023244;28;20512;-40
2023/11/22 00:52:31;;;;;;;4.10;1.80;;;;;;;-5.02;62.25;99437.66;5019629;28;20568;-40
2023/11/22 00:54:57;;;;;;;4.95;2.10;;;;;;;-4.99;62.14;99441.97;5054617;28;20033;-41
2023/11/22 00:57:23;;;;;;;4.88;1.92;;;;;;;-4.98;61.64;99436.09;5009926;28;20453;-40
2023/11/22 00:59:49;;;;;;;7.88;2.90;;;;;;;-4.95;61.72;99431.94;5025585;28;20049;-42
2023/11/22 01:02:16;;;;;;;5.65;2.50;;;;;;;-4.95;61.75;99428.53;5008776;28;20074;-40
2023/11/22 01:04:42;;;;;;;6.90;2.22;;;;;;;-4.95;61.89;99426.00;5026886;28;20065;-40
2023/11/22 01:07:08;;;;;;;6.13;2.15;;;;;;;-4.96;61.39;99429.34;4993694;28;20072;-41
2023/11/22 01:09:34;;;;;;;5.53;2.58;;;;;;;-4.97;61.73;99435.28;5014963;28;20492;-40
2023/11/22 01:12:00;;;;;;;9.40;2.88;;;;;;;-5.17;61.62;99395.09;5042937;28;20428;-40
2023/11/22 01:14:27;;;;;;;3.72;2.00;;;;;;;-5.00;61.65;99430.97;5032076;28;20041;-42
2023/11/22 01:17:03;;;;;;;5.78;2.15;;;;;;;-5.02;61.35;99425.00;5030378;28;20049;-41
2023/11/22 01:19:29;;;;;;;6.22;2.33;;;;;;;-5.01;61.84;99430.94;5041204;28;20094;-39
2023/11/22 01:21:55;;;;;;;7.78;2.78;;;;;;;-5.05;61.65;99429.16;5025049;28;20460;-41
2023/11/22 01:24:21;;;;;;;3.42;1.90;;;;;;;-5.08;61.19;99431.63;5023509;28;20053;-41
2023/11/22 01:26:47;;;;;;;3.75;1.70;;;;;;;-5.10;61.83;99426.50;5016501;28;20049;-40
2023/11/22 01:29:13;;;;;;;5.85;2.25;;;;;;;-5.14;61.78;99419.66;5019758;28;20420;-40
2023/11/22 01:31:39;;;;;;;4.85;2.47;;;;;;;-5.12;60.95;99429.00;5025964;28;20468;-41
2023/11/22 01:34:06;;;;;;;5.90;2.05;;;;;;;-5.12;61.78;99435.75;5022632;28;20042;-40
2023/11/22 01:36:33;;;;;;;5.03;2.00;;;;;;;-5.13;61.46;99434.06;5015255;28;20429;-41
2023/11/22 01:38:58;;;;;;;6.55;2.50;;;;;;;-5.30;61.57;99407.44;5024198;28;20068;-41
2023/11/22 01:41:25;;;;;;;5.47;2.10;;;;;;;-5.14;61.44;99432.34;5025220;28;20178;-40
2023/11/22 01:43:51;;;;;;;5.30;2.25;;;;;;;-5.14;61.81;99427.25;5025706;28;20072;-39
2023/11/22 01:46:25;;;;;;;4.80;1.73;;;;;;;-5.21;61.86;99425.41;5018037;28;20053;-41
2023/11/22 01:48:52;;;;;;;3.70;1.75;;;;;;;-5.22;61.33;99433.81;5016115;28;20045;-39
2023/11/22 01:51:22;;;;;;;5.85;2.38;;;;;;;-5.21;61.65;99425.41;5006095;28;20128;-40
2023/11/22 01:53:53;;;;;;;6.43;1.50;;;;;;;-5.20;61.46;99435.56;5037500;28;20073;-40
2023/11/22 01:56:20;;;;;;;3.50;1.80;;;;;;;-5.24;61.49;99430.41;4998153;28;20152;-40
2023/11/22 01:58:47;;;;;;;4.35;1.70;;;;;;;-5.23;61.77;99430.41;5025992;28;20277;-41
2023/11/22 02:01:13;;;;;;;3.90;1.80;;;;;;;-5.21;61.42;99441.47;5013293;28;20041;-40
2023/11/22 02:03:39;;;;;;;3.75;1.90;;;;;;;-5.33;61.32;99417.50;5011076;28;20080;-41
2023/11/22 02:06:06;;;;;;;4.75;2.15;;;;;;;-5.28;61.21;99436.19;5017938;28;20095;-40
2023/11/22 02:08:32;;;;;;;4.00;1.67;;;;;;;-5.27;60.95;99432.84;5025102;28;20040;-39
2023/11/22 02:10:59;;;;;;;4.15;2.33;;;;;;;-5.23;61.75;99435.47;5007164;28;20041;-39
2023/11/22 02:13:26;;;;;;;6.90;1.92;;;;;;;-5.36;61.15;99402.22;5022843;28;20064;-40
2023/11/22 02:15:55;;;;;;;5.72;2.45;;;;;;;-5.17;61.59;99437.31;5029966;28;20052;-40
2023/11/22 02:18:23;;;;;;;3.40;1.52;;;;;;;-5.20;61.26;99438.09;5013368;28;20818;-40
2023/11/22 02:20:50;;;;;;;2.85;1.50;;;;;;;-5.40;61.33;99408.06;5015193;28;20084;-40
2023/11/22 02:23:17;;;;;;;4.10;1.50;;;;;;;-5.23;60.97;99437.16;5027740;28;20406;-41
2023/11/22 02:25:42;;;;;;;3.08;1.52;;;;;;;-5.21;61.42;99433.00;5028309;28;20049;-40
2023/11/22 02:28:08;;;;;;;6.00;1.40;;;;;;;-5.19;60.78;99437.28;5029128;28;20040;-41
2023/11/22 02:30:35;;;;;;;3.83;1.67;;;;;;;-5.37;60.85;99401.38;5028682;28;20041;-41
2023/11/22 02:33:00;;;;;;;4.88;1.88;;;;;;;-5.13;61.11;99445.00;5029183;28;20076;-41
2023/11/22 02:35:30;;;;;;;5.00;1.90;;;;;;;-5.16;61.00;99433.97;5028556;28;20462;-40
2023/11/22 02:37:56;;;;;;;2.45;1.30;;;;;;;-5.37;60.72;99403.91;5028239;28;20038;-39
2023/11/22 02:40:22;;;;;;;6.15;1.95;;;;;;;-5.19;61.21;99434.75;4994050;28;20180;-40
2023/11/22 02:42:49;;;;;;;4.55;1.60;;;;;;;-5.22;60.64;99434.66;5028513;28;20141;-41
2023/11/22 02:45:17;;;;;;;6.15;1.60;;;;;;;-5.18;60.55;99435.63;5029055;28;20037;-40
2023/11/22 02:47:47;;;;;;;3.83;1.88;;;;;;;-5.21;60.39;99433.00;5013642;28;20042;-40
2023/11/22 02:50:13;;;;;;;3.28;1.77;;;;;;;-5.17;61.00;99440.69;5028367;28;20041;-40
2023/11/22 02:52:40;;;;;;;5.13;1.58;;;;;;;-5.51;60.56;99372.34;5060216;28;20048;-39
2023/11/22 02:55:06;;;;;;;2.83;1.48;;;;;;;-5.10;60.43;99441.72;5028495;28;20037;-41
2023/11/22 02:57:32;;;;;;;5.25;1.40;;;;;;;-5.12;60.21;99440.81;5024460;28;20452;-40
2023/11/22 02:59:58;;;;;;;4.90;1.52;;;;;;;-5.16;60.70;99449.16;5011883;28;20038;-40
2023/11/22 03:02:25;;;;;;;6.20;1.70;;;;;;;-5.19;60.11;99447.44;4995123;28;20037;-40
2023/11/22 03:04:51;;;;;;;4.30;1.48;;;;;;;-5.18;60.76;99444.06;5027694;28;20061;-40
2023/11/22 03:07:18;;;;;;;4.55;1.33;;;;;;;-5.18;60.42;99440.69;5028211;28;20159;-40
2023/11/22 03:09:45;;;;;;;4.22;1.83;;;;;;;-5.20;60.05;99433.03;5028401;28;20041;-40
2023/11/22 03:12:12;;;;;;;1.98;1.40;;;;;;;-5.10;59.97;99446.78;5029337;28;20044;-39
2023/11/22 03:14:39;;;;;;;4.57;1.38;;;;;;;-5.13;60.44;99442.47;5011276;28;20040;-41
2023/11/22 03:17:06;;;;;;;5.30;1.85;;;;;;;-5.16;59.82;99444.97;5027777;28;20513;-41
2023/11/22 03:19:33;;;;;;;4.03;1.85;;;;;;;-5.30;59.93;99420.97;5027927;28;20065;-40
2023/11/22 03:22:02;;;;;;;4.43;1.70;;;;;;;-5.11;60.33;99452.66;5027446;28;20038;-40
2023/11/22 03:24:34;;;;;;;4.20;1.52;;;;;;;-5.21;59.92;99433.00;5026298;28;20064;-40
2023/11/22 03:27:01;;;;;;;4.50;1.88;;;;;;;-5.17;59.95;99453.38;5017522;28;20573;-41
2023/11/22 03:29:27;;;;;;;3.38;1.23;;;;;;;-5.18;60.61;99449.13;5011872;28;20047;-40
2023/11/22 03:31:54;;;;;;;6.45;1.95;;;;;;;-5.20;59.81;99453.31;5028481;28;20045;-40
2023/11/22 03:34:20;;;;;;;3.80;1.35;;;;;;;-5.16;59.71;99449.16;4996130;28;20037;-40
2023/11/22 03:36:46;;;;;;;7.95;1.65;;;;;;;-5.19;60.17;99444.03;5042989;28;20045;-41
2023/11/22 03:39:14;;;;;;;4.45;1.98;;;;;;;-5.19;60.13;99447.44;5026680;28;20045;-41
2023/11/22 03:41:41;;;;;;;3.88;1.73;;;;;;;-5.18;59.88;99443.22;5028375;28;20045;-42
2023/11/22 03:44:08;;;;;;;4.32;2.10;;;;;;;-5.29;60.16;99430.28;5015892;28;20091;-40
2023/11/22 03:46:38;;;;;;;5.20;1.77;;;;;;;-5.16;60.35;99444.09;5028021;28;20072;-40
2023/11/22 03:49:04;;;;;;;;;;;;;;;-5.16;60.23;99449.16;5010157;28;20045;-41
2023/11/22 03:51:30;;;;;;;3.60;1.73;;;;;;;-5.19;60.32;99452.50;5028824;28;19939;-40
2023/11/22 03:53:56;;;;;;;3.92;1.98;;;;;;;-5.18;59.79;99458.44;5026479;28;20124;-40
2023/11/22 03:56:22;;;;;;;4.10;1.50;;;;;;;-5.19;60.29;99460.09;5023300;28;20646;-40
2023/11/22 03:58:48;;;;;;;4.72;1.92;;;;;;;-5.19;60.22;99466.84;5023824;28;20545;-40
2023/11/22 04:01:16;;;;;;;4.22;1.63;;;;;;;-5.20;60.05;99460.06;5021878;28;20041;-41
2023/11/22 04:03:42;;;;;;;5.93;2.22;;;;;;;-5.17;60.15;99475.31;5027081;28;20041;-40
2023/11/22 04:06:08;;;;;;;4.55;1.88;;;;;;;-5.16;59.97;99454.22;5026997;28;20168;-42
2023/11/22 04:08:34;;;;;;;5.35;1.77;;;;;;;-5.50;60.02;99394.31;5026591;28;20128;-40
2023/11/22 04:11:00;;;;;;;3.58;1.40;;;;;;;-5.08;60.03;99464.56;5021177;28;20087;-40
2023/11/22 04:13:25;;;;;;;4.00;1.88;;;;;;;-5.22;60.07;99434.66;5027564;28;20545;-41
2023/11/22 04:15:51;;;;;;;3.55;1.75;;;;;;;-5.09;59.85;99456.09;5027393;28;20102;-40
2023/11/22 04:18:17;;;;;;;3.60;1.65;;;;;;;-5.13;60.13;99460.22;5029454;28;20045;-42
2023/11/22 04:20:44;;;;;;;4.60;2.00;;;;;;;-5.19;60.15;99467.69;5028352;28;20056;-40
2023/11/22 04:23:10;;;;;;;4.53;1.60;;;;;;;-5.17;59.98;99463.50;5010388;28;20047;-42
2023/11/22 04:25:37;;;;;;;2.83;1.40;;;;;;;-5.17;60.09;99460.13;5026477;28;20052;-42
2023/11/22 04:28:03;;;;;;;3.15;0.98;;;;;;;-5.16;59.89;99464.38;5030387;28;20401;-41
2023/11/22 04:30:29;;;;;;;5.18;1.60;;;;;;;-5.20;59.74;99460.91;5011537;28;20075;-41
2023/11/22 04:32:55;;;;;;;4.03;1.40;;;;;;;-5.39;60.11;99430.84;5022067;28;20429;-41
2023/11/22 04:35:20;;;;;;;3.40;1.55;;;;;;;-5.23;60.19;99465.03;5026714;28;20105;-42
2023/11/22 04:37:46;;;;;;;5.53;1.50;;;;;;;-5.45;60.13;99433.25;5025447;28;20574;-41
2023/11/22 04:40:14;;;;;;;5.00;1.80;;;;;;;-5.23;59.89;99465.03;5010571;28;20128;-40
2023/11/22 04:42:40;;;;;;;3.20;1.38;;;;;;;-5.59;59.84;99399.13;5025921;28;20044;-42
2023/11/22 04:45:06;;;;;;;4.80;1.70;;;;;;;-5.20;60.01;99462.59;5025315;28;20045;-42
2023/11/22 04:47:33;;;;;;;3.20;1.52;;;;;;;-5.17;59.74;99467.72;5032558;28;20080;-41
2023/11/22 04:49:59;;;;;;;4.43;1.65;;;;;;;-5.19;59.95;99464.31;5006146;28;20046;-40
2023/11/22 04:52:25;;;;;;;7.10;1.73;;;;;;;-5.18;59.79;99469.38;5023388;28;20068;-41
2023/11/22 04:54:51;;;;;;;4.95;1.45;;;;;;;-5.18;59.67;99468.56;5025808;28;20036;-42
2023/11/22 04:57:17;;;;;;;6.20;1.30;;;;;;;-5.40;59.70;99439.31;5018978;28;20079;-43
2023/11/22 04:59:42;;;;;;;3.13;1.52;;;;;;;-5.28;59.85;99469.13;5026289;28;20068;-41
2023/11/22 05:02:08;;;;;;;2.17;1.20;;;;;;;-5.22;59.75;99475.22;5021948;28;20095;-40
2023/11/22 05:04:34;;;;;;;3.65;1.40;;;;;;;-5.57;59.80;99422.81;5013216;28;20037;-40
2023/11/22 05:07:00;;;;;;;1.70;0.98;;;;;;;-5.23;60.24;99478.56;5026485;28;20041;-39
2023/11/22 05:09:26;;;;;;;4.22;1.70;;;;;;;-5.31;59.70;99487.66;5025240;28;20045;-39
2023/11/22 05:11:52;;;;;;;2.70;1.33;;;;;;;-5.45;60.03;99461.13;5025095;28;20041;-39
2023/11/22 05:14:18;;;;;;;2.80;1.38;;;;;;;-5.29;59.63;99497.84;5021006;28;20105;-40
2023/11/22 05:16:44;;;;;;;3.95;2.05;;;;;;;-5.27;59.75;99504.63;5005727;28;20052;-40
2023/11/22 05:19:10;;;;;;;4.15;1.75;;;;;;;-5.24;60.46;99501.34;5019907;28;20449;-38
2023/11/22 05:21:36;;;;;;;2.90;1.20;;;;;;;-5.21;59.65;99499.72;5026368;28;20808;-39
2023/11/22 05:24:02;;;;;;;4.80;1.73;;;;;;;-5.18;60.07;99502.31;5024936;28;20044;-42
2023/11/22 05:26:28;;;;;;;5.40;1.35;;;;;;;-5.18;60.07;99504.88;5013108;28;20097;-40
2023/11/22 05:28:54;;;;;;;2.53;1.05;;;;;;;-5.16;60.31;99508.31;4997604;28;20525;-40
2023/11/22 05:31:21;;;;;;;3.67;1.20;;;;;;;-5.17;60.03;99509.13;5023720;28;20041;-39
2023/11/22 05:33:46;;;;;;;1.95;1.30;;;;;;;-5.19;59.71;99497.25;5024027;28;20049;-39
2023/11/22 05:36:14;;;;;;;2.72;1.30;;;;;;;-5.19;59.96;99499.78;5023885;28;20586;-46
2023/11/22 05:38:40;;;;;;;1.98;0.95;;;;;;;-5.20;59.79;99496.38;5009340;28;20046;-39
2023/11/22 05:41:05;;;;;;;1.90;1.17;;;;;;;-5.22;59.56;99502.22;5026186;28;20048;-40
2023/11/22 05:43:31;;;;;;;3.75;1.42;;;;;;;-5.23;59.56;99501.34;5025696;28;20045;-39
2023/11/22 05:45:57;;;;;;;3.22;1.23;;;;;;;-5.23;59.77;99503.88;5019384;28;20620;-39
2023/11/22 05:48:23;;;;;;;2.45;1.00;;;;;;;-5.22;59.43;99497.16;5026533;28;20517;-40
2023/11/22 05:50:48;;;;;;;1.75;1.13;;;;;;;-5.23;59.72;99510.63;5025920;28;20041;-39
2023/11/22 05:53:19;;;;;;;2.53;1.20;;;;;;;-5.23;59.04;99513.16;5025356;28;20529;-40
2023/11/22 05:55:47;;;;;;;1.48;0.73;;;;;;;-5.23;58.94;99511.50;5013704;28;20038;-40
2023/11/22 05:58:16;;;;;;;2.08;0.90;;;;;;;-5.25;59.19;99513.16;5003071;28;20049;-40
2023/11/22 06:00:46;;;;;;;2.67;1.25;;;;;;;-5.21;59.58;99514.94;5021643;28;20485;-42
2023/11/22 06:03:13;;;;;;;5.47;1.40;;;;;;;-5.21;58.97;99514.94;5023666;28;20421;-39
2023/11/22 06:05:39;;;;;;;5.63;1.00;;;;;;;-5.27;59.29;99511.38;5023494;28;20034;-39
2023/11/22 06:08:06;;;;;;;2.22;0.95;;;;;;;-5.28;58.77;99518.13;5024853;28;20053;-38
2023/11/22 06:10:32;;;;;;;1.23;0.75;;;;;;;-5.29;58.81;99516.44;5011312;28;20140;-38
2023/11/22 06:12:58;;;;;;;0.90;0.60;;;;;;;-5.33;58.85;99506.16;5023115;28;20140;-39
2023/11/22 06:15:24;;;;;;;1.23;0.70;;;;;;;-5.35;58.17;99516.25;5024932;28;20048;-39
2023/11/22 06:17:50;;;;;;;0.70;0.40;;;;;;;-5.39;58.53;99518.69;5026369;28;20107;-40
2023/11/22 06:20:16;;;;;;;2.20;0.70;;;;;;;-5.47;57.81;99512.53;5026903;28;20063;-39
2023/11/22 06:22:42;;;;;;;2.58;1.02;;;;;;;-5.48;58.54;99509.16;5035435;28;20041;-41
2023/11/22 06:25:10;;;;;;;2.15;0.80;;;;;;;-5.44;57.87;99523.59;5001591;28;20045;-40
2023/11/22 06:27:36;;;;;;;1.17;0.70;;;;;;;-5.45;57.93;99521.91;5027004;28;20064;-40
2023/11/22 06:30:03;;;;;;;3.55;0.93;;;;;;;-5.63;57.85;99486.81;5025226;28;20124;-40
2023/11/22 06:32:31;;;;;;;4.30;0.80;;;;;;;-5.64;58.12;99504.50;5009958;28;20513;-40
2023/11/22 06:34:56;;;;;;;1.60;0.77;;;;;;;-5.47;58.05;99526.06;5032741;28;20061;-40
2023/11/22 06:37:23;;;;;;;4.85;0.90;;;;;;;-5.53;58.46;99515.75;5033104;28;20066;-39
2023/11/22 06:39:50;;;;;;;1.90;0.95;;;;;;;-5.43;57.89;99530.38;5030186;28;20029;-39
2023/11/22 06:42:16;;;;;;;1.23;0.88;;;;;;;-5.41;57.80;99522.84;5016506;28;20106;-39
2023/11/22 06:44:42;;;;;;;1.50;0.90;;;;;;;-5.32;58.39;99518.00;5030679;28;20187;-40
2023/11/22 06:47:09;;;;;;;3.78;0.93;;;;;;;-5.27;58.02;99521.50;5013963;28;20076;-40
2023/11/22 06:49:35;;;;;;;3.72;1.25;;;;;;;-5.25;58.43;99525.81;5029976;28;20042;-39
2023/11/22 06:52:01;;;;;;;2.13;0.95;;;;;;;-5.22;58.38;99522.50;5026981;28;20044;-40
2023/11/22 06:54:27;;;;;;;2.10;0.93;;;;;;;-5.27;57.92;99513.91;5031171;28;20041;-39
2023/11/22 06:56:53;;;;;;;1.85;0.93;;;;;;;-5.12;58.39;99520.22;5030550;28;20114;-40
2023/11/22 06:59:19;;;;;;;1.42;0.85;;;;;;;-5.08;58.03;99480.63;5014126;28;20455;-39
2023/11/22 07:01:45;;;;;;;2.35;1.08;;;;;;;-4.57;58.00;99518.16;5036018;28;20400;-40
2023/11/22 07:04:11;;;;;;;1.65;0.80;;;;;;;-4.47;57.57;99490.50;5035910;28;20040;-40
2023/11/22 07:06:37;;;;;;;3.15;1.45;;;;;;;-3.64;56.58;99511.69;5033905;28;20044;-39
2023/11/22 07:09:04;;;;;;;2.10;1.00;;;;;;;-3.06;55.63;99521.25;5031611;28;20044;-39
2023/11/22 07:11:31;;;;;;;1.42;0.80;;;;;;;-2.42;54.79;99523.97;5028969;28;20037;-39
2023/11/22 07:13:57;;;;;;;3.10;0.68;;;;;;;-2.01;54.10;99527.94;5029163;28;20044;-37
2023/11/22 07:16:24;;;;;;;1.05;0.63;;;;;;;-1.66;53.49;99525.81;5029264;28;20037;-36
2023/11/22 07:18:50;;;;;;;8.13;1.00;;;;;;;-1.48;52.84;99527.72;5010670;28;20041;-37
2023/11/22 07:21:20;;;;;;;1.98;1.17;;;;;;;-1.64;52.73;99530.94;5027461;28;20140;-38
2023/11/22 07:23:47;;;;;;;2.00;1.05;;;;;;;-1.92;52.53;99538.25;5027600;28;20069;-39
2023/11/22 07:26:16;;;;;;;1.58;0.85;;;;;;;-2.19;52.25;99541.25;5029499;28;20731;-38
2023/11/22 07:28:42;;;;;;;2.40;0.90;;;;;;;-1.99;51.91;99533.06;5026789;28;20064;-37
2023/11/22 07:31:09;;;;;;;1.63;0.80;;;;;;;-1.96;51.71;99551.78;5031593;28;20049;-38
2023/11/22 07:33:35;;;;;;;1.45;0.93;;;;;;;-2.21;51.56;99535.31;5052184;28;20048;-50
2023/11/22 07:36:03;;;;;;;1.98;0.85;;;;;;;-2.32;51.57;99549.56;5004068;28;20075;-37
2023/11/22 07:38:31;;;;;;;1.33;0.70;;;;;;;-2.65;51.50;99516.81;5031891;28;20038;-37
2023/11/22 07:40:57;;;;;;;6.50;1.40;;;;;;;-2.57;51.46;99548.34;5027494;28;20049;-37
2023/11/22 07:43:24;;;;;;;1.63;0.85;;;;;;;-3.14;51.29;99481.28;5027076;28;20039;-37
2023/11/22 07:45:50;;;;;;;1.92;1.00;;;;;;;-2.88;51.65;99551.22;5026571;28;20148;-37
2023/11/22 07:48:17;;;;;;;2.08;1.08;;;;;;;-2.97;51.57;99547.66;5029058;28;20056;-38
2023/11/22 07:50:43;;;;;;;2.45;1.10;;;;;;;-3.11;51.33;99549.97;5028966;28;20533;-37
2023/11/22 07:53:11;;;;;;;3.65;1.10;;;;;;;-3.21;51.47;99556.56;5027024;28;20039;-37
2023/11/22 07:55:38;;;;;;;1.77;1.13;;;;;;;-3.21;52.00;99556.56;5026856;28;20037;-37
2023/11/22 07:58:06;;;;;;;2.28;1.02;;;;;;;-3.24;51.63;99553.94;5009431;28;20041;-39
2023/11/22 08:00:36;;;;;;;3.20;1.40;;;;;;;-3.16;51.71;99546.47;5026032;28;20136;-38
2023/11/22 08:03:02;;;;;;;1.67;0.80;;;;;;;-3.14;51.59;99545.66;5010469;28;20033;-38
2023/11/22 08:05:34;;;;;;;2.03;0.75;;;;;;;-3.09;51.27;99549.13;5027189;28;20050;-38
2023/11/22 08:08:07;;;;;;;1.70;0.88;;;;;;;-3.26;51.08;99520.03;5028437;28;20041;-36
2023/11/22 08:10:37;;;;;;;1.65;0.60;;;;;;;-3.06;50.99;99550.91;5027070;28;20045;-37
2023/11/22 08:13:03;;;;;;;1.85;0.93;;;;;;;-3.44;51.39;99507.84;5027459;28;20045;-37
2023/11/22 08:15:31;;;;;;;2.75;1.58;;;;;;;-2.62;50.62;99501.59;5027798;28;20380;-37
2023/11/22 08:17:58;;;;;;;1.52;1.13;;;;;;;-1.13;49.86;99525.53;5011453;28;20047;-38
2023/11/22 08:20:25;;;;;;;2.60;1.15;;;;;;;0.94;46.89;99525.03;5009137;28;20059;-38
2023/11/22 08:22:50;;;;;;;5.15;1.30;;;;;;;2.07;45.43;99534.38;5027526;28;20132;-39
2023/11/22 08:25:17;;;;;;;1.08;0.93;;;;;;;2.83;43.64;99498.94;5026761;28;20125;-36
2023/11/22 08:27:44;;;;;;;2.03;1.10;;;;;;;3.58;43.63;99524.94;5027012;28;20049;-37
2023/11/22 08:30:15;;;;;;;2.47;1.15;;;;;;;3.67;42.76;99527.41;5009987;28;20110;-37
2023/11/22 08:32:48;;;;;;;1.27;0.80;;;;;;;2.46;43.21;99523.94;5026096;28;20080;-37
2023/11/22 08:35:15;;;;;;;3.17;1.38;;;;;;;1.83;43.82;99525.03;5024034;28;20044;-37
2023/11/22 08:37:41;;;;;;;1.90;1.00;;;;;;;2.19;42.95;99526.66;4992545;28;20041;-37
2023/11/22 08:40:11;;;;;;;3.45;1.20;;;;;;;2.48;42.25;99516.25;5022046;28;20052;-37
2023/11/22 08:42:37;;;;;;;4.45;1.60;;;;;;;2.54;41.94;99518.81;5025452;28;20049;-37
2023/11/22 08:45:03;;;;;;;4.38;1.15;;;;;;;2.70;41.63;99515.31;5025641;28;20137;-37
2023/11/22 08:47:31;;;;;;;4.28;1.92;;;;;;;2.74;41.42;99501.56;5026816;28;20033;-37
2023/11/22 08:49:57;;;;;;;2.45;1.42;;;;;;;3.23;40.72;99489.25;5009530;28;20054;-36
2023/11/22 08:52:23;;;;;;;4.47;1.17;;;;;;;3.88;40.68;99512.63;5026204;28;20468;-38
2023/11/22 08:54:51;;;;;;;1.58;1.17;;;;;;;4.15;39.74;99486.63;5026392;28;20041;-37
2023/11/22 08:57:18;;;;;;;2.35;1.50;;;;;;;3.56;39.77;99510.41;5010675;28;20048;-38
2023/11/22 08:59:44;;;;;;;2.53;1.00;;;;;;;2.60;40.41;99508.50;5025782;28;20052;-37
2023/11/22 09:02:12;;;;;;;1.90;1.00;;;;;;;1.81;41.32;99490.84;5025216;28;20037;-37
2023/11/22 09:04:38;;;;;;;1.60;1.00;;;;;;;1.46;41.59;99502.88;5026199;28;20053;-37
2023/11/22 09:07:05;;;;;;;2.75;1.33;;;;;;;0.79;41.79;99484.91;5034292;28;20045;-37
2023/11/22 09:09:32;;;;;;;2.70;1.20;;;;;;;0.59;42.54;99518.13;5026870;28;20100;-38
2023/11/22 09:11:58;;;;;;;2.00;1.33;;;;;;;0.28;42.97;99488.19;5021336;28;20069;-36
2023/11/22 09:14:24;;;;;;;11.63;2.25;;;;;;;0.33;43.58;99520.59;5023085;28;20063;-38
2023/11/22 09:16:54;;;;;;;2.15;1.08;;;;;;;-0.02;43.68;99483.81;5023413;28;20041;-38
2023/11/22 09:19:24;;;;;;;3.85;1.40;;;;;;;-0.04;44.09;99513.59;5026781;28;20425;-37
2023/11/22 09:21:51;;;;;;;2.67;1.15;;;;;;;-0.13;44.36;99523.78;5012882;28;20041;-37
2023/11/22 09:24:17;;;;;;;3.58;1.58;;;;;;;-0.24;44.55;99523.72;5025515;28;20525;-37
2023/11/22 09:26:43;;;;;;;2.92;1.52;;;;;;;-0.37;44.94;99516.84;5024196;28;20084;-36
2023/11/22 09:29:13;;;;;;;6.93;1.33;;;;;;;-0.57;44.69;99529.44;5023320;28;20048;-37
2023/11/22 09:31:42;;;;;;;1.38;0.80;;;;;;;-0.94;44.85;99520.63;5023065;28;20120;-38
2023/11/22 09:34:09;;;;;;;2.22;0.98;;;;;;;-1.25;45.41;99527.97;5023775;28;20047;-36
2023/11/22 09:36:36;;;;;;;1.60;0.93;;;;;;;-1.32;45.63;99525.38;5025851;28;20041;-36
2023/11/22 09:39:08;;;;;;;7.50;1.50;;;;;;;-1.74;45.90;99467.13;5023862;28;20477;-38
2023/11/22 09:41:35;;;;;;;3.72;2.08;;;;;;;-1.47;46.25;99522.66;5017817;28;20038;-37
2023/11/22 09:44:01;;;;;;;4.32;1.23;;;;;;;-1.55;46.18;99524.25;5024697;28;20045;-45
2023/11/22 09:46:30;;;;;;;3.58;1.35;;;;;;;-1.77;46.54;99496.81;5020072;28;21098;-37
2023/11/22 09:48:57;;;;;;;5.43;1.10;;;;;;;-1.67;46.73;99525.81;5026011;28;20635;-36
2023/11/22 09:51:32;;;;;;;5.60;1.85;;;;;;;-1.72;46.97;99526.59;5019522;28;20041;-37
2023/11/22 09:54:04;;;;;;;2.25;1.15;;;;;;;-1.76;47.16;99524.84;5025112;28;20203;-37
2023/11/22 09:56:32;;;;;;;2.30;0.93;;;;;;;-1.87;47.24;99528.09;5017555;28;20489;-37
2023/11/22 09:59:00;;;;;;;2.95;1.00;;;;;;;-2.11;47.64;99517.59;5013238;28;20048;-36
2023/11/22 10:01:36;;;;;;;1.38;0.85;;;;;;;-2.14;47.76;99511.63;5015522;28;20044;-37
2023/11/22 10:04:05;;;;;;;2.92;1.38;;;;;;;-2.16;47.81;99522.63;5021767;28;20053;-37
2023/11/22 10:06:34;;;;;;;1.95;1.17;;;;;;;-2.13;47.99;99520.97;5025152;28;20072;-37
2023/11/22 10:09:07;;;;;;;1.33;0.90;;;;;;;-2.36;48.38;99483.31;5025569;28;20159;-35
2023/11/22 10:11:38;;;;;;;4.30;1.20;;;;;;;-2.15;48.23;99520.09;5026638;28;20041;-43
2023/11/22 10:14:04;;;;;;;2.65;1.20;;;;;;;-2.34;48.11;99485.03;5019887;28;20049;-36
2023/11/22 10:16:30;;;;;;;2.03;1.20;;;;;;;-2.16;48.49;99520.09;5040672;28;20076;-36
2023/11/22 10:18:57;;;;;;;3.40;0.82;;;;;;;-2.23;48.50;99514.06;5023878;28;20414;-37
2023/11/22 10:21:30;;;;;;;2.08;1.05;;;;;;;-2.35;48.44;99497.75;5025040;28;21875;-36
2023/11/22 10:23:57;;;;;;;2.38;1.00;;;;;;;-2.14;48.81;99506.53;5007132;28;20133;-37
2023/11/22 10:26:24;;;;;;;1.20;0.77;;;;;;;-1.91;48.72;99517.03;5013422;28;20482;-35
2023/11/22 10:28:53;;;;;;;1.88;1.17;;;;;;;-1.75;48.92;99518.94;5054885;28;20047;-36
2023/11/22 10:31:21;;;;;;;;;;;;;;;-1.58;48.37;99515.72;5024447;28;20095;-36
2023/11/22 10:33:47;;;;;;;2.17;1.00;;;;;;;-1.60;48.43;99528.44;5026255;28;19940;-36
2023/11/22 10:36:14;;;;;;;2.60;1.20;;;;;;;-1.61;48.20;99508.88;5023658;28;20561;-35
2023/11/22 10:38:42;;;;;;;2.85;1.10;;;;;;;-1.61;48.39;99511.44;5029568;28;20045;-36
2023/11/22 10:41:08;;;;;;;2.55;1.00;;;;;;;-1.66;48.75;99515.63;5026911;28;20124;-35
2023/11/22 10:43:35;;;;;;;2.40;1.20;;;;;;;-1.80;48.67;99520.56;5029448;28;20051;-36
2023/11/22 10:46:04;;;;;;;2.88;1.17;;;;;;;-1.93;49.02;99517.84;5025668;28;20056;-36
2023/11/22 10:48:33;;;;;;;3.75;1.15;;;;;;;-1.99;49.35;99510.13;5016193;28;20501;-37
2023/11/22 10:51:05;;;;;;;2.08;1.63;;;;;;;-2.02;49.54;99513.47;5009371;28;20096;-38
2023/11/22 10:53:35;;;;;;;3.53;1.35;;;;;;;-2.09;49.79;99521.03;5026902;28;20041;-36
2023/11/22 10:56:19;;;;;;;3.42;1.40;;;;;;;-2.14;50.03;99516.72;5029061;28;20037;-37
2023/11/22 10:58:51;;;;;;;2.85;1.23;;;;;;;-2.33;50.16;99521.53;4996513;28;20052;-36
2023/11/22 11:01:22;;;;;;;3.20;1.33;;;;;;;-2.33;50.37;99516.44;5026371;28;20401;-37
2023/11/22 11:03:57;;;;;;;7.13;2.05;;;;;;;-2.33;50.64;99511.34;5022342;28;20473;-36
2023/11/22 11:06:28;;;;;;;5.00;1.35;;;;;;;-2.35;50.74;99505.38;5016974;28;20141;-35
2023/11/22 11:09:00;;;;;;;2.55;1.30;;;;;;;-2.39;51.05;99507.03;5012268;28;20355;-37
2023/11/22 11:11:32;;;;;;;3.55;1.30;;;;;;;-2.42;51.13;99501.06;5027677;28;20057;-40
2023/11/22 11:13:58;;;;;;;8.10;1.52;;;;;;;-2.51;51.62;99496.66;5028549;28;20037;-37
2023/11/22 11:16:24;;;;;;;2.28;1.00;;;;;;;-2.52;51.50;99507.69;5028959;28;20053;-36
2023/11/22 11:18:50;;;;;;;1.73;0.90;;;;;;;-2.53;51.45;99510.22;5026419;28;20149;-40
2023/11/22 11:21:16;;;;;;;3.03;0.93;;;;;;;-2.69;50.96;99476.06;5028295;28;20521;-37
2023/11/22 11:23:44;;;;;;;4.10;1.15;;;;;;;-2.46;51.26;99515.41;5026191;28;20045;-41
2023/11/22 11:26:21;;;;;;;1.90;1.25;;;;;;;-2.87;51.16;99463.03;5022318;28;20045;-37
2023/11/22 11:28:49;;;;;;;2.83;1.10;;;;;;;-2.57;51.50;99510.19;5026657;28;20092;-36
2023/11/22 11:31:16;;;;;;;2.05;1.00;;;;;;;-2.58;51.63;99511.00;5011298;28;20053;-36
2023/11/22 11:33:48;;;;;;;2.67;1.38;;;;;;;-2.63;51.67;99504.13;5025683;28;20037;-38